Garden Grove, IA (50103)

8:42 PM CDT on August 23, 2016 (GMT -0500)
Lamoni Municipal | | Change Station

Elev 1132 ft 40.63 °N, 93.90 °W | Updated 13 minutes ago

Mostly Cloudy
Mostly Cloudy
76 °F
Feels Like 76 °F
N
13
Wind Variable Wind from South
Gusts 22 mph

Today
High -- | Low -- °F
--% Chance of Precip.
Yesterday
High -- | Low -- °F
Precip. -- in
Pressure 29.92 in
Visibility 10.0 miles
Clouds Mostly Cloudy 900 ft
Mostly Cloudy 1300 ft
Dew Point 74 °F
Humidity 94%
Rainfall 0.00 in
Snow Depth Not available.
6:33 AM 7:59 PM
Waning Gibbous, 62% visible
SPECI KLWD 240129Z AUTO 17011G19KT 10SM BKN009 BKN013 24/23 A2992 RMK AO2 CIG 007V011 T02440233
Pressure 29.92 in
Visibility 10.0 miles
Clouds Mostly Cloudy 900 ft
Mostly Cloudy 1300 ft
Dew Point 74 °F
Humidity 94%
Rainfall 0.00 in
Snow Depth Not available.
6:33 AM 7:59 PM
Waning Gibbous, 62% visible
SPECI KLWD 240129Z AUTO 17011G19KT 10SM BKN009 BKN013 24/23 A2992 RMK AO2 CIG 007V011 T02440233

10-Day Weather Forecast

Almanac

Astronomy

Aug. 23, 2016 Rise Set
Actual Time
Civil Twilight
Nautical Twilight
Astronomical Twilight
Moon
Length of Visible Light
Length of Day
Tomorrow will be .
, % of the Moon is Illuminated

Today's Extremes

State Highs State Lows

Community

WunderPhotos

Upload Photos

1,934,520 photos uploaded!

WunderBlog® & News

Nearby

Air Quality

  Air Quality AQ Index Pollutant
Not available.

Snow Depth

Station Depth Elevation

Earthquake Activity

City Distance Mag. Time & Date
Minimum magnitude displayed is 2.5.

Coastal Water Temperatures

Place Temperature

Stations

Nearby Weather Stations

Station Location Temp. Windchill Dew Point Humidity Wind Precip. Elev Updated Type
                   

Watches & Warnings

There are currently no watches in effect.